• Join FlightAware (Why Join?)
  • Login
  • US Flag 
03:58AM EST


 

Airport Tracker/Info


-or-


 

Live Flight TrackerFlight Track Log ✈ DLH204 ✈ 06-Jul-2013 ✈ EDDF / FRA - EDDC / DRS

Flight Track Log - Related Links

Times and Time Zones

All times are in EDT time to prevent confusion due to time zone crossing. See the DLH204 flight status page for this flight to view local times or setup timezone preferences in your user account.

Time Position Orientation Groundspeed Altitude Reporting Facility
EDT Latitude Longitude Course Direction KTS MPH feet Rate Location/Type
12:36AM 50.0430 8.5800 250° West 22 25  Level FlightAware
12:38AM 50.0390 8.5650 247° West 24 28 180 Level FlightAware
12:38AM 50.0380 8.5620 243° Southwest 23 26 300 Level FlightAware
12:39AM 50.0370 8.5560 255° West 24 28 300 Level FlightAware
12:41AM 50.0874 8.7691 70° East  Level Estimated
12:41AM 50.0360 8.5610 70° East 135 155  Level FlightAware
12:41AM 50.0430 8.5910 70° East 136 157 1,100 2,160 Climbing FlightAware
12:42AM 50.0490 8.6160 69° East 153 176 2,000 1,800 Climbing FlightAware
12:42AM 50.0570 8.6530 71° East 209 241 2,800 1,500 Climbing FlightAware
12:43AM 50.0650 8.6920 72° East 255 293 3,400 2,280 Climbing FlightAware
12:43AM 50.0680 8.7190 80° East 261 300 4,300 3,720 Climbing FlightAware
12:44AM 50.0630 8.7740 98° East 267 307 6,200 3,600 Climbing FlightAware
12:44AM 50.0560 8.8340 100° East 278 320 7,900 2,880 Climbing FlightAware
12:45AM 50.0560 8.9140 90° East 280 322 10,400 2,520 Climbing FlightAware
12:46AM 50.0580 9.0440 89° East 347 399 12,200 2,520 Climbing FlightAware
12:46AM 50.0650 9.1420 84° East 363 418 14,100 3,120 Climbing FlightAware
12:47AM 50.0800 9.2860 81° East 384 442 16,900 3,360 Climbing FlightAware
12:48AM 50.0910 9.3930 81° East 392 451 18,900 3,060 Climbing FlightAware
12:48AM 50.1010 9.4900 81° East 396 456 20,600 2,340 Climbing FlightAware
12:49AM 50.1130 9.6080 81° East 391 450 21,900 1,500 Climbing FlightAware
12:50AM 50.1230 9.7170 82° East 390 449 22,700 840 Climbing FlightAware
12:50AM 50.1340 9.8200 81° East 389 448 23,000 180 Climbing FlightAware
12:51AM 50.1450 9.9420 82° East 387 445 23,000  Level FlightAware
12:52AM 50.1570 10.0610 81° East 387 445 23,000  Level FlightAware
12:52AM 50.1670 10.1710 82° East 391 450 23,000  Level FlightAware
12:53AM 50.1790 10.2950 81° East 392 451 23,000  Level FlightAware
12:54AM 50.1890 10.4070 82° East 390 449 23,000  Level FlightAware
12:55AM 50.1980 10.5050 82° East 390 449 23,000  Level FlightAware
12:55AM 50.2070 10.6050 82° East 390 449 23,000  Level FlightAware
12:56AM 50.2190 10.7400 82° East 390 449 23,000  Level FlightAware
12:57AM 50.2300 10.8560 82° East 389 448 23,000  Level FlightAware
12:57AM 50.2380 10.9480 82° East 389 448 23,000  Level FlightAware
12:58AM 50.2480 11.0690 83° East 390 449 23,000  Level FlightAware
12:59AM 50.2590 11.1950 82° East 391 450 23,000  Level FlightAware
12:59AM 50.2660 11.2820 83° East 391 450 23,000  Level FlightAware
01:00AM 50.2770 11.4060 82° East 392 451 23,000  Level FlightAware
01:01AM 50.2890 11.5090 80° East 390 449 23,000  Level FlightAware
01:01AM 50.3090 11.5660 61° Northeast 389 448 23,000  Level FlightAware
01:02AM 50.3520 11.6550 53° Northeast 389 448 23,000  Level FlightAware
01:02AM 50.3940 11.7450 54° Northeast 389 448 23,000  Level FlightAware
01:03AM 50.4420 11.8470 54° Northeast 389 448 23,000  Level FlightAware
01:04AM 50.4840 11.9370 54° Northeast 389 448 23,000  Level FlightAware
01:04AM 50.5270 12.0390 56° Northeast 390 449 23,000  Level FlightAware
01:05AM 50.5620 12.1490 63° Northeast 392 451 23,000 -360 Level FlightAware
01:06AM 50.5900 12.2400 64° Northeast 392 451 22,600 -1,440 Descending FlightAware
01:06AM 50.6220 12.3430 64° Northeast 389 448 21,200 -2,100 Descending FlightAware
01:07AM 50.6510 12.4390 64° Northeast 390 449 19,900 -2,100 Descending FlightAware
01:08AM 50.6880 12.5580 64° Northeast 381 438 18,300 -2,220 Descending FlightAware
01:08AM 50.7170 12.6540 64° Northeast 372 428 16,800 -2,340 Descending FlightAware
01:09AM 50.7500 12.7620 64° Northeast 364 419 15,100 -2,400 Descending FlightAware
01:10AM 50.7790 12.8580 64° Northeast 356 410 13,400 -2,520 Descending FlightAware
01:10AM 50.8070 12.9500 64° Northeast 340 391 11,800 -2,520 Descending FlightAware
01:11AM 50.8230 13.0050 65° Northeast 335 386 10,800 -2,280 Descending FlightAware
01:11AM 50.8440 13.0730 64° Northeast 325 374 9,700 -1,440 Descending FlightAware
01:12AM 50.8610 13.1310 65° Northeast 296 341 9,400 -1,020 Descending FlightAware
01:12AM 50.8770 13.1840 64° Northeast 284 327 8,800 -1,380 Descending FlightAware
01:13AM 50.8910 13.2330 66° East 277 319 8,200 -1,680 Descending FlightAware
01:13AM 50.8980 13.2580 66° East 278 320 7,700 -1,920 Descending FlightAware
01:13AM 50.9120 13.3030 64° Northeast 279 321 7,000 -1,680 Descending FlightAware
01:14AM 50.9290 13.3580 64° Northeast 265 305 6,200 -1,620 Descending FlightAware
01:14AM 50.9360 13.3840 67° East 260 299 5,800 -1,380 Descending FlightAware
01:15AM 50.9460 13.4250 69° East 249 287 5,300 -1,920 Descending FlightAware
01:15AM 50.9550 13.4720 73° East 257 296 4,200 -1,800 Descending FlightAware
01:15AM 50.9620 13.5170 76° East 236 272 3,800 -900 Descending FlightAware
01:16AM 50.9700 13.5380 59° Northeast 221 254 3,600 -1,200 Descending FlightAware
01:16AM 50.9920 13.5700 42° Northeast 221 254 2,900 -1,200 Descending FlightAware
01:16AM 50.9960 13.5770 48° Northeast 220 253 2,800 -420 Descending FlightAware
01:17AM 51.0320 13.6260 41° Northeast 201 231 2,500 -660 Descending FlightAware
01:18AM 51.0590 13.6630 41° Northeast 148 170 1,800 -960 Descending FlightAware
01:18AM 51.0720 13.6800 39° Northeast 121 139 1,400 -660 Descending FlightAware
01:19AM 51.0840 13.6970 42° Northeast 126 145 1,200 -600 Descending FlightAware
01:19AM 51.0970 13.7150 41° Northeast 121 139 800 -840 Descending FlightAware
01:22AM 51.1328 13.7672 42° Northeast  Level Estimated
01:23AM 51.1328 13.7672 168° South  Level Estimated
01:24AM 51.1328 13.7672 168° South  Level Estimated
01:25AM 51.1328 13.7672 168° South  Level Estimated
01:26AM 51.1328 13.7672 168° South  Level Estimated
01:27AM 51.1328 13.7672 168° South  Level Estimated
01:28AM 51.1328 13.7672 168° South  Level Estimated
01:29AM 51.1328 13.7672 168° South  Level Estimated
01:30AM 51.1328 13.7672 168° South  Level Estimated
01:31AM 51.1328 13.7672 168° South  Level Estimated
01:32AM 51.1328 13.7672 168° South  Level Estimated
01:33AM 51.1328 13.7672 168° South  Level Estimated